sensor_id;sensor_type;location;lat;lon;timestamp;temperature;humidity
45643;DHT22;31358;46.008;11.144;2022-12-18T00:01:01;2.30;99.90
45643;DHT22;31358;46.008;11.144;2022-12-18T00:03:32;2.30;99.90
45643;DHT22;31358;46.008;11.144;2022-12-18T00:05:58;2.10;99.90
45643;DHT22;31358;46.008;11.144;2022-12-18T00:08:24;2.10;99.90
45643;DHT22;31358;46.008;11.144;2022-12-18T00:10:50;2.00;99.90
45643;DHT22;31358;46.008;11.144;2022-12-18T00:13:15;2.00;99.90
45643;DHT22;31358;46.008;11.144;2022-12-18T00:15:41;1.90;99.90
45643;DHT22;31358;46.008;11.144;2022-12-18T00:18:07;1.90;99.90
45643;DHT22;31358;46.008;11.144;2022-12-18T00:20:37;2.00;99.90
45643;DHT22;31358;46.008;11.144;2022-12-18T00:23:04;2.50;99.90
45643;DHT22;31358;46.008;11.144;2022-12-18T00:25:29;4.00;99.90
45643;DHT22;31358;46.008;11.144;2022-12-18T00:27:57;2.80;99.90
45643;DHT22;31358;46.008;11.144;2022-12-18T00:30:23;2.40;99.90
45643;DHT22;31358;46.008;11.144;2022-12-18T00:32:48;2.30;99.90
45643;DHT22;31358;46.008;11.144;2022-12-18T00:35:14;2.30;99.90
45643;DHT22;31358;46.008;11.144;2022-12-18T00:37:40;2.10;99.90
45643;DHT22;31358;46.008;11.144;2022-12-18T00:40:06;2.20;99.90
45643;DHT22;31358;46.008;11.144;2022-12-18T00:42:31;2.00;99.90
45643;DHT22;31358;46.008;11.144;2022-12-18T00:45:16;2.10;99.90
45643;DHT22;31358;46.008;11.144;2022-12-18T00:47:41;2.00;99.90
45643;DHT22;31358;46.008;11.144;2022-12-18T00:50:08;2.00;99.90
45643;DHT22;31358;46.008;11.144;2022-12-18T00:52:33;1.90;99.90
45643;DHT22;31358;46.008;11.144;2022-12-18T00:54:59;1.80;99.90
45643;DHT22;31358;46.008;11.144;2022-12-18T00:57:25;2.10;99.90
45643;DHT22;31358;46.008;11.144;2022-12-18T00:59:50;2.20;99.90
45643;DHT22;31358;46.008;11.144;2022-12-18T01:02:16;2.30;99.90
45643;DHT22;31358;46.008;11.144;2022-12-18T01:04:41;2.10;99.90
45643;DHT22;31358;46.008;11.144;2022-12-18T01:07:07;1.80;99.90
45643;DHT22;31358;46.008;11.144;2022-12-18T01:09:33;1.80;99.90
45643;DHT22;31358;46.008;11.144;2022-12-18T01:11:59;1.80;99.90
45643;DHT22;31358;46.008;11.144;2022-12-18T01:14:25;1.80;99.90
45643;DHT22;31358;46.008;11.144;2022-12-18T01:16:51;1.80;99.90
45643;DHT22;31358;46.008;11.144;2022-12-18T01:19:16;1.90;99.90
45643;DHT22;31358;46.008;11.144;2022-12-18T01:21:42;1.90;99.90
45643;DHT22;31358;46.008;11.144;2022-12-18T01:24:09;1.80;99.90
45643;DHT22;31358;46.008;11.144;2022-12-18T01:26:35;1.90;99.90
45643;DHT22;31358;46.008;11.144;2022-12-18T01:29:01;1.80;99.90
45643;DHT22;31358;46.008;11.144;2022-12-18T01:31:29;1.90;99.90
45643;DHT22;31358;46.008;11.144;2022-12-18T01:33:55;1.80;99.90
45643;DHT22;31358;46.008;11.144;2022-12-18T01:36:24;1.70;99.90
45643;DHT22;31358;46.008;11.144;2022-12-18T01:38:51;2.00;99.90
45643;DHT22;31358;46.008;11.144;2022-12-18T01:41:20;1.80;99.90
45643;DHT22;31358;46.008;11.144;2022-12-18T01:43:48;1.70;99.90
45643;DHT22;31358;46.008;11.144;2022-12-18T01:46:15;1.60;99.90
45643;DHT22;31358;46.008;11.144;2022-12-18T01:48:41;1.70;99.90
45643;DHT22;31358;46.008;11.144;2022-12-18T01:51:09;1.50;99.90
45643;DHT22;31358;46.008;11.144;2022-12-18T01:53:36;1.70;99.90
45643;DHT22;31358;46.008;11.144;2022-12-18T01:56:02;1.70;99.90
45643;DHT22;31358;46.008;11.144;2022-12-18T02:01:14;1.80;99.90
45643;DHT22;31358;46.008;11.144;2022-12-18T02:03:41;1.80;99.90
45643;DHT22;31358;46.008;11.144;2022-12-18T02:12:19;1.90;99.90
45643;DHT22;31358;46.008;11.144;2022-12-18T02:17:37;1.70;99.90
45643;DHT22;31358;46.008;11.144;2022-12-18T02:28:11;1.70;99.90
45643;DHT22;31358;46.008;11.144;2022-12-18T02:30:39;1.70;99.90
45643;DHT22;31358;46.008;11.144;2022-12-18T02:33:07;1.60;99.90
45643;DHT22;31358;46.008;11.144;2022-12-18T02:35:34;1.30;99.90
45643;DHT22;31358;46.008;11.144;2022-12-18T02:38:03;1.20;99.90
45643;DHT22;31358;46.008;11.144;2022-12-18T02:40:30;1.30;99.90
45643;DHT22;31358;46.008;11.144;2022-12-18T02:43:01;1.40;99.90
45643;DHT22;31358;46.008;11.144;2022-12-18T02:45:27;1.30;99.90
45643;DHT22;31358;46.008;11.144;2022-12-18T02:47:53;1.10;99.90
45643;DHT22;31358;46.008;11.144;2022-12-18T02:50:22;1.10;99.90
45643;DHT22;31358;46.008;11.144;2022-12-18T02:58:14;1.30;99.90
45643;DHT22;31358;46.008;11.144;2022-12-18T03:01:49;1.60;99.90
45643;DHT22;31358;46.008;11.144;2022-12-18T03:04:34;1.30;99.90
45643;DHT22;31358;46.008;11.144;2022-12-18T03:07:05;1.30;99.90
45643;DHT22;31358;46.008;11.144;2022-12-18T03:09:42;1.30;99.90
45643;DHT22;31358;46.008;11.144;2022-12-18T03:12:15;1.40;99.90
45643;DHT22;31358;46.008;11.144;2022-12-18T03:15:01;1.30;99.90
45643;DHT22;31358;46.008;11.144;2022-12-18T03:17:31;1.40;99.90
45643;DHT22;31358;46.008;11.144;2022-12-18T03:20:03;1.40;99.90
45643;DHT22;31358;46.008;11.144;2022-12-18T03:22:32;1.30;99.90
45643;DHT22;31358;46.008;11.144;2022-12-18T03:25:02;1.30;99.90
45643;DHT22;31358;46.008;11.144;2022-12-18T03:27:30;1.40;99.90
45643;DHT22;31358;46.008;11.144;2022-12-18T03:30:05;1.30;99.90
45643;DHT22;31358;46.008;11.144;2022-12-18T03:35:33;1.30;99.90
45643;DHT22;31358;46.008;11.144;2022-12-18T03:38:00;1.20;99.90
45643;DHT22;31358;46.008;11.144;2022-12-18T03:40:32;1.30;99.90
45643;DHT22;31358;46.008;11.144;2022-12-18T03:43:10;1.30;99.90
45643;DHT22;31358;46.008;11.144;2022-12-18T03:45:41;1.40;99.90
45643;DHT22;31358;46.008;11.144;2022-12-18T03:53:18;1.00;99.90
45643;DHT22;31358;46.008;11.144;2022-12-18T03:55:48;1.00;99.90
45643;DHT22;31358;46.008;11.144;2022-12-18T03:58:17;1.10;99.90
45643;DHT22;31358;46.008;11.144;2022-12-18T04:00:44;1.10;99.90
45643;DHT22;31358;46.008;11.144;2022-12-18T04:03:11;1.10;99.90
45643;DHT22;31358;46.008;11.144;2022-12-18T04:05:37;1.10;99.90
45643;DHT22;31358;46.008;11.144;2022-12-18T04:08:04;1.00;99.90
45643;DHT22;31358;46.008;11.144;2022-12-18T04:10:30;1.20;99.90
45643;DHT22;31358;46.008;11.144;2022-12-18T04:12:57;1.20;99.90
45643;DHT22;31358;46.008;11.144;2022-12-18T04:15:23;1.20;99.90
45643;DHT22;31358;46.008;11.144;2022-12-18T04:17:49;1.10;99.90
45643;DHT22;31358;46.008;11.144;2022-12-18T04:20:15;1.10;99.90
45643;DHT22;31358;46.008;11.144;2022-12-18T04:22:41;1.00;99.90
45643;DHT22;31358;46.008;11.144;2022-12-18T04:25:07;1.10;99.90
45643;DHT22;31358;46.008;11.144;2022-12-18T04:27:33;1.10;99.90
45643;DHT22;31358;46.008;11.144;2022-12-18T04:29:59;1.10;99.90
45643;DHT22;31358;46.008;11.144;2022-12-18T04:32:25;1.00;99.90
45643;DHT22;31358;46.008;11.144;2022-12-18T04:34:50;0.90;99.90
45643;DHT22;31358;46.008;11.144;2022-12-18T04:37:16;0.90;99.90
45643;DHT22;31358;46.008;11.144;2022-12-18T04:39:42;0.90;99.90
45643;DHT22;31358;46.008;11.144;2022-12-18T04:42:07;0.90;99.90
45643;DHT22;31358;46.008;11.144;2022-12-18T04:44:33;0.90;99.90
45643;DHT22;31358;46.008;11.144;2022-12-18T04:46:59;0.80;99.90
45643;DHT22;31358;46.008;11.144;2022-12-18T04:49:25;0.70;99.90
45643;DHT22;31358;46.008;11.144;2022-12-18T04:51:51;0.80;99.90
45643;DHT22;31358;46.008;11.144;2022-12-18T04:54:17;0.60;99.90
45643;DHT22;31358;46.008;11.144;2022-12-18T04:56:45;0.70;99.90
45643;DHT22;31358;46.008;11.144;2022-12-18T04:59:11;0.50;99.90
45643;DHT22;31358;46.008;11.144;2022-12-18T05:01:36;0.50;99.90
45643;DHT22;31358;46.008;11.144;2022-12-18T05:04:02;0.70;99.90
45643;DHT22;31358;46.008;11.144;2022-12-18T05:06:28;0.70;99.90
45643;DHT22;31358;46.008;11.144;2022-12-18T05:08:54;0.80;99.90
45643;DHT22;31358;46.008;11.144;2022-12-18T05:11:20;0.70;99.90
45643;DHT22;31358;46.008;11.144;2022-12-18T05:13:46;0.70;99.90
45643;DHT22;31358;46.008;11.144;2022-12-18T05:16:12;0.80;99.90
45643;DHT22;31358;46.008;11.144;2022-12-18T05:18:38;0.90;99.90
45643;DHT22;31358;46.008;11.144;2022-12-18T05:21:04;0.80;99.90
45643;DHT22;31358;46.008;11.144;2022-12-18T05:23:30;0.80;99.90
45643;DHT22;31358;46.008;11.144;2022-12-18T05:26:00;0.70;99.90
45643;DHT22;31358;46.008;11.144;2022-12-18T05:28:29;0.70;99.90
45643;DHT22;31358;46.008;11.144;2022-12-18T05:30:57;0.80;99.90
45643;DHT22;31358;46.008;11.144;2022-12-18T05:33:24;0.90;99.90
45643;DHT22;31358;46.008;11.144;2022-12-18T05:35:58;0.90;99.90
45643;DHT22;31358;46.008;11.144;2022-12-18T05:38:26;0.90;99.90
45643;DHT22;31358;46.008;11.144;2022-12-18T05:40:52;1.10;99.90
45643;DHT22;31358;46.008;11.144;2022-12-18T05:43:19;1.00;99.90
45643;DHT22;31358;46.008;11.144;2022-12-18T05:45:47;1.00;99.90
45643;DHT22;31358;46.008;11.144;2022-12-18T05:48:13;0.70;99.90
45643;DHT22;31358;46.008;11.144;2022-12-18T05:50:40;0.70;99.90
45643;DHT22;31358;46.008;11.144;2022-12-18T05:53:07;0.70;99.90
45643;DHT22;31358;46.008;11.144;2022-12-18T05:55:34;0.60;99.90
45643;DHT22;31358;46.008;11.144;2022-12-18T05:58:00;0.80;99.90
45643;DHT22;31358;46.008;11.144;2022-12-18T06:00:26;0.80;99.90
45643;DHT22;31358;46.008;11.144;2022-12-18T06:02:51;0.70;99.90
45643;DHT22;31358;46.008;11.144;2022-12-18T06:05:17;0.70;99.90
45643;DHT22;31358;46.008;11.144;2022-12-18T06:07:43;0.80;99.90
45643;DHT22;31358;46.008;11.144;2022-12-18T06:10:08;0.60;99.90
45643;DHT22;31358;46.008;11.144;2022-12-18T06:12:34;0.60;99.90
45643;DHT22;31358;46.008;11.144;2022-12-18T06:15:00;0.70;99.90
45643;DHT22;31358;46.008;11.144;2022-12-18T06:17:30;0.60;99.90
45643;DHT22;31358;46.008;11.144;2022-12-18T06:19:56;0.70;99.90
45643;DHT22;31358;46.008;11.144;2022-12-18T06:22:21;0.80;99.90
45643;DHT22;31358;46.008;11.144;2022-12-18T06:24:47;0.80;99.90
45643;DHT22;31358;46.008;11.144;2022-12-18T06:27:12;0.50;99.90
45643;DHT22;31358;46.008;11.144;2022-12-18T06:29:38;0.50;99.90
45643;DHT22;31358;46.008;11.144;2022-12-18T06:32:04;0.60;99.90
45643;DHT22;31358;46.008;11.144;2022-12-18T06:34:31;0.50;99.90
45643;DHT22;31358;46.008;11.144;2022-12-18T06:36:57;0.40;99.90
45643;DHT22;31358;46.008;11.144;2022-12-18T06:39:23;0.40;99.90
45643;DHT22;31358;46.008;11.144;2022-12-18T06:41:49;0.60;99.90
45643;DHT22;31358;46.008;11.144;2022-12-18T06:44:14;0.70;99.90
45643;DHT22;31358;46.008;11.144;2022-12-18T06:46:40;0.80;99.90
45643;DHT22;31358;46.008;11.144;2022-12-18T06:49:06;0.80;99.90
45643;DHT22;31358;46.008;11.144;2022-12-18T06:51:32;0.60;99.90
45643;DHT22;31358;46.008;11.144;2022-12-18T06:53:57;0.70;99.90
45643;DHT22;31358;46.008;11.144;2022-12-18T06:56:23;0.70;99.90
45643;DHT22;31358;46.008;11.144;2022-12-18T06:58:49;0.60;99.90
45643;DHT22;31358;46.008;11.144;2022-12-18T07:01:14;0.50;99.90
45643;DHT22;31358;46.008;11.144;2022-12-18T07:03:41;0.40;99.90
45643;DHT22;31358;46.008;11.144;2022-12-18T07:06:12;0.40;99.90
45643;DHT22;31358;46.008;11.144;2022-12-18T07:08:38;0.50;99.90
45643;DHT22;31358;46.008;11.144;2022-12-18T07:11:04;0.60;99.90
45643;DHT22;31358;46.008;11.144;2022-12-18T07:13:30;0.70;99.90
45643;DHT22;31358;46.008;11.144;2022-12-18T07:16:03;0.60;99.90
45643;DHT22;31358;46.008;11.144;2022-12-18T07:18:29;0.50;99.90
45643;DHT22;31358;46.008;11.144;2022-12-18T07:20:54;0.50;99.90
45643;DHT22;31358;46.008;11.144;2022-12-18T07:23:20;0.50;99.90
45643;DHT22;31358;46.008;11.144;2022-12-18T07:25:45;0.50;99.90
45643;DHT22;31358;46.008;11.144;2022-12-18T07:28:11;0.50;99.90
45643;DHT22;31358;46.008;11.144;2022-12-18T07:30:38;0.50;99.90
45643;DHT22;31358;46.008;11.144;2022-12-18T07:33:04;0.70;99.90
45643;DHT22;31358;46.008;11.144;2022-12-18T07:35:29;0.60;99.90
45643;DHT22;31358;46.008;11.144;2022-12-18T07:37:55;0.60;99.90
45643;DHT22;31358;46.008;11.144;2022-12-18T07:40:20;0.70;99.90
45643;DHT22;31358;46.008;11.144;2022-12-18T07:42:46;0.70;99.90
45643;DHT22;31358;46.008;11.144;2022-12-18T07:45:12;0.60;99.90
45643;DHT22;31358;46.008;11.144;2022-12-18T07:47:37;0.60;99.90
45643;DHT22;31358;46.008;11.144;2022-12-18T07:50:04;0.60;99.90
45643;DHT22;31358;46.008;11.144;2022-12-18T07:52:30;0.50;99.90
45643;DHT22;31358;46.008;11.144;2022-12-18T07:54:55;0.50;99.90
45643;DHT22;31358;46.008;11.144;2022-12-18T07:57:21;0.50;99.90
45643;DHT22;31358;46.008;11.144;2022-12-18T07:59:47;0.60;99.90
45643;DHT22;31358;46.008;11.144;2022-12-18T08:02:12;0.60;99.90
45643;DHT22;31358;46.008;11.144;2022-12-18T08:04:38;0.60;99.90
45643;DHT22;31358;46.008;11.144;2022-12-18T08:07:03;0.60;99.90
45643;DHT22;31358;46.008;11.144;2022-12-18T08:09:29;0.50;99.90
45643;DHT22;31358;46.008;11.144;2022-12-18T08:11:55;0.50;99.90
45643;DHT22;31358;46.008;11.144;2022-12-18T08:14:20;0.50;99.90
45643;DHT22;31358;46.008;11.144;2022-12-18T08:16:46;0.50;99.90
45643;DHT22;31358;46.008;11.144;2022-12-18T08:19:12;0.40;99.90
45643;DHT22;31358;46.008;11.144;2022-12-18T08:21:41;0.40;99.90
45643;DHT22;31358;46.008;11.144;2022-12-18T08:24:09;0.30;99.90
45643;DHT22;31358;46.008;11.144;2022-12-18T08:26:34;0.40;99.90
45643;DHT22;31358;46.008;11.144;2022-12-18T08:29:00;0.40;99.90
45643;DHT22;31358;46.008;11.144;2022-12-18T08:31:27;0.40;99.90
45643;DHT22;31358;46.008;11.144;2022-12-18T08:33:53;0.40;99.90
45643;DHT22;31358;46.008;11.144;2022-12-18T08:36:20;0.50;99.90
45643;DHT22;31358;46.008;11.144;2022-12-18T08:38:47;0.40;99.90
45643;DHT22;31358;46.008;11.144;2022-12-18T08:41:14;0.40;99.90
45643;DHT22;31358;46.008;11.144;2022-12-18T08:43:41;0.40;99.90
45643;DHT22;31358;46.008;11.144;2022-12-18T08:46:27;0.50;99.90
45643;DHT22;31358;46.008;11.144;2022-12-18T08:48:53;0.40;99.90
45643;DHT22;31358;46.008;11.144;2022-12-18T08:51:20;0.60;99.90
45643;DHT22;31358;46.008;11.144;2022-12-18T08:53:47;0.50;99.90
45643;DHT22;31358;46.008;11.144;2022-12-18T08:56:13;0.60;99.90
45643;DHT22;31358;46.008;11.144;2022-12-18T08:58:40;0.60;99.90
45643;DHT22;31358;46.008;11.144;2022-12-18T09:01:08;0.60;99.90
45643;DHT22;31358;46.008;11.144;2022-12-18T09:03:35;0.70;99.90
45643;DHT22;31358;46.008;11.144;2022-12-18T09:06:01;0.70;99.90
45643;DHT22;31358;46.008;11.144;2022-12-18T09:08:27;0.70;99.90
45643;DHT22;31358;46.008;11.144;2022-12-18T09:10:53;0.60;99.90
45643;DHT22;31358;46.008;11.144;2022-12-18T09:13:19;0.60;99.90
45643;DHT22;31358;46.008;11.144;2022-12-18T09:15:47;0.60;99.90
45643;DHT22;31358;46.008;11.144;2022-12-18T09:18:15;0.60;99.90
45643;DHT22;31358;46.008;11.144;2022-12-18T09:20:41;0.60;99.90
45643;DHT22;31358;46.008;11.144;2022-12-18T09:23:08;0.70;99.90
45643;DHT22;31358;46.008;11.144;2022-12-18T09:25:34;0.60;99.90
45643;DHT22;31358;46.008;11.144;2022-12-18T09:28:06;0.50;99.90
45643;DHT22;31358;46.008;11.144;2022-12-18T09:30:41;1.10;99.90
45643;DHT22;31358;46.008;11.144;2022-12-18T09:33:07;1.00;99.90
45643;DHT22;31358;46.008;11.144;2022-12-18T09:35:35;0.80;99.90
45643;DHT22;31358;46.008;11.144;2022-12-18T09:38:01;0.70;99.90
45643;DHT22;31358;46.008;11.144;2022-12-18T09:40:31;0.70;99.90
45643;DHT22;31358;46.008;11.144;2022-12-18T09:43:03;0.70;99.90
45643;DHT22;31358;46.008;11.144;2022-12-18T09:45:39;0.90;99.90
45643;DHT22;31358;46.008;11.144;2022-12-18T09:48:10;0.80;99.90
45643;DHT22;31358;46.008;11.144;2022-12-18T09:50:40;0.80;99.90
45643;DHT22;31358;46.008;11.144;2022-12-18T09:53:15;0.80;99.90
45643;DHT22;31358;46.008;11.144;2022-12-18T09:55:45;0.80;99.90
45643;DHT22;31358;46.008;11.144;2022-12-18T10:00:54;0.70;99.90
45643;DHT22;31358;46.008;11.144;2022-12-18T10:03:20;0.80;99.90
45643;DHT22;31358;46.008;11.144;2022-12-18T10:11:34;0.60;99.90
45643;DHT22;31358;46.008;11.144;2022-12-18T10:17:19;0.70;99.90
45643;DHT22;31358;46.008;11.144;2022-12-18T10:19:55;0.90;99.90
45643;DHT22;31358;46.008;11.144;2022-12-18T10:28:11;0.80;99.90
45643;DHT22;31358;46.008;11.144;2022-12-18T10:30:38;0.90;99.90
45643;DHT22;31358;46.008;11.144;2022-12-18T10:33:04;1.00;99.90
45643;DHT22;31358;46.008;11.144;2022-12-18T10:35:30;1.00;99.90
45643;DHT22;31358;46.008;11.144;2022-12-18T10:40:28;1.00;99.90
45643;DHT22;31358;46.008;11.144;2022-12-18T10:43:13;0.90;99.90
45643;DHT22;31358;46.008;11.144;2022-12-18T10:45:41;0.90;99.90
45643;DHT22;31358;46.008;11.144;2022-12-18T10:48:21;0.90;99.90
45643;DHT22;31358;46.008;11.144;2022-12-18T10:50:51;1.00;99.90
45643;DHT22;31358;46.008;11.144;2022-12-18T10:53:25;1.10;99.90
45643;DHT22;31358;46.008;11.144;2022-12-18T10:55:57;1.20;99.90
45643;DHT22;31358;46.008;11.144;2022-12-18T11:01:03;1.60;99.90
45643;DHT22;31358;46.008;11.144;2022-12-18T11:08:29;2.10;99.90
45643;DHT22;31358;46.008;11.144;2022-12-18T11:10:55;2.10;99.90
45643;DHT22;31358;46.008;11.144;2022-12-18T11:13:23;2.10;99.90
45643;DHT22;31358;46.008;11.144;2022-12-18T11:15:50;2.10;99.90
45643;DHT22;31358;46.008;11.144;2022-12-18T11:18:29;2.20;99.90
45643;DHT22;31358;46.008;11.144;2022-12-18T11:21:08;2.20;99.70
45643;DHT22;31358;46.008;11.144;2022-12-18T11:23:35;2.30;99.90
45643;DHT22;31358;46.008;11.144;2022-12-18T11:26:03;2.50;99.90
45643;DHT22;31358;46.008;11.144;2022-12-18T11:28:41;2.80;99.60
45643;DHT22;31358;46.008;11.144;2022-12-18T11:31:09;2.60;99.40
45643;DHT22;31358;46.008;11.144;2022-12-18T11:33:39;2.60;99.10
45643;DHT22;31358;46.008;11.144;2022-12-18T11:36:08;3.00;99.50
45643;DHT22;31358;46.008;11.144;2022-12-18T11:38:40;2.90;98.70
45643;DHT22;31358;46.008;11.144;2022-12-18T11:44:11;2.80;99.40
45643;DHT22;31358;46.008;11.144;2022-12-18T11:46:46;2.90;99.00
45643;DHT22;31358;46.008;11.144;2022-12-18T11:49:19;2.90;98.70
45643;DHT22;31358;46.008;11.144;2022-12-18T11:52:03;3.00;98.80
45643;DHT22;31358;46.008;11.144;2022-12-18T11:54:30;3.00;98.80
45643;DHT22;31358;46.008;11.144;2022-12-18T11:57:02;3.20;98.70
45643;DHT22;31358;46.008;11.144;2022-12-18T12:00:03;3.20;98.30
45643;DHT22;31358;46.008;11.144;2022-12-18T12:05:47;3.20;98.30
45643;DHT22;31358;46.008;11.144;2022-12-18T12:16:25;4.20;97.60
45643;DHT22;31358;46.008;11.144;2022-12-18T12:19:11;4.00;97.40
45643;DHT22;31358;46.008;11.144;2022-12-18T12:21:46;3.80;97.50
45643;DHT22;31358;46.008;11.144;2022-12-18T12:30:22;4.00;97.50
45643;DHT22;31358;46.008;11.144;2022-12-18T12:35:58;3.80;98.40
45643;DHT22;31358;46.008;11.144;2022-12-18T12:38:43;3.90;97.90
45643;DHT22;31358;46.008;11.144;2022-12-18T12:41:14;3.80;97.70
45643;DHT22;31358;46.008;11.144;2022-12-18T12:44:19;3.70;97.50
45643;DHT22;31358;46.008;11.144;2022-12-18T12:46:46;3.80;97.50
45643;DHT22;31358;46.008;11.144;2022-12-18T12:49:18;3.70;97.20
45643;DHT22;31358;46.008;11.144;2022-12-18T12:52:10;3.70;97.50
45643;DHT22;31358;46.008;11.144;2022-12-18T12:54:38;3.60;97.90
45643;DHT22;31358;46.008;11.144;2022-12-18T13:02:31;3.50;97.90
45643;DHT22;31358;46.008;11.144;2022-12-18T13:05:03;3.50;97.50
45643;DHT22;31358;46.008;11.144;2022-12-18T13:15:36;3.80;97.90
45643;DHT22;31358;46.008;11.144;2022-12-18T13:21:05;3.80;97.80
45643;DHT22;31358;46.008;11.144;2022-12-18T13:23:38;3.80;98.00
45643;DHT22;31358;46.008;11.144;2022-12-18T13:31:11;3.70;98.00
45643;DHT22;31358;46.008;11.144;2022-12-18T13:33:46;3.70;98.00
45643;DHT22;31358;46.008;11.144;2022-12-18T13:36:25;3.70;97.90
45643;DHT22;31358;46.008;11.144;2022-12-18T13:41:36;3.60;97.70
45643;DHT22;31358;46.008;11.144;2022-12-18T13:46:55;3.70;97.70
45643;DHT22;31358;46.008;11.144;2022-12-18T13:49:40;3.70;97.90
45643;DHT22;31358;46.008;11.144;2022-12-18T13:52:19;3.90;98.00
45643;DHT22;31358;46.008;11.144;2022-12-18T13:54:57;3.90;97.60
45643;DHT22;31358;46.008;11.144;2022-12-18T13:57:30;3.90;97.80
45643;DHT22;31358;46.008;11.144;2022-12-18T13:59:57;3.90;97.60
45643;DHT22;31358;46.008;11.144;2022-12-18T14:02:26;3.80;97.20
45643;DHT22;31358;46.008;11.144;2022-12-18T14:04:52;3.80;97.30
45643;DHT22;31358;46.008;11.144;2022-12-18T14:09:57;3.70;97.60
45643;DHT22;31358;46.008;11.144;2022-12-18T14:12:29;3.60;98.00
45643;DHT22;31358;46.008;11.144;2022-12-18T14:15:34;3.50;98.10
45643;DHT22;31358;46.008;11.144;2022-12-18T14:20:32;3.30;99.20
45643;DHT22;31358;46.008;11.144;2022-12-18T14:23:00;3.10;98.40
45643;DHT22;31358;46.008;11.144;2022-12-18T14:25:30;3.10;98.00
45643;DHT22;31358;46.008;11.144;2022-12-18T14:30:38;3.00;98.90
45643;DHT22;31358;46.008;11.144;2022-12-18T14:33:08;3.00;99.20
45643;DHT22;31358;46.008;11.144;2022-12-18T14:35:36;2.90;99.20
45643;DHT22;31358;46.008;11.144;2022-12-18T14:38:39;2.80;99.40
45643;DHT22;31358;46.008;11.144;2022-12-18T14:41:15;2.70;99.90
45643;DHT22;31358;46.008;11.144;2022-12-18T14:43:48;2.60;99.90
45643;DHT22;31358;46.008;11.144;2022-12-18T14:46:35;2.60;99.90
45643;DHT22;31358;46.008;11.144;2022-12-18T14:49:04;2.50;99.80
45643;DHT22;31358;46.008;11.144;2022-12-18T14:51:34;2.50;98.50
45643;DHT22;31358;46.008;11.144;2022-12-18T14:54:06;2.50;99.10
45643;DHT22;31358;46.008;11.144;2022-12-18T14:56:48;2.40;98.80
45643;DHT22;31358;46.008;11.144;2022-12-18T14:59:21;2.30;98.60
45643;DHT22;31358;46.008;11.144;2022-12-18T15:01:59;2.40;98.50
45643;DHT22;31358;46.008;11.144;2022-12-18T15:04:37;2.20;99.60
45643;DHT22;31358;46.008;11.144;2022-12-18T15:07:20;2.10;99.40
45643;DHT22;31358;46.008;11.144;2022-12-18T15:12:44;2.10;99.90
45643;DHT22;31358;46.008;11.144;2022-12-18T15:20:50;2.10;99.90
45643;DHT22;31358;46.008;11.144;2022-12-18T15:23:25;1.90;99.90
45643;DHT22;31358;46.008;11.144;2022-12-18T15:26:00;1.90;99.90
45643;DHT22;31358;46.008;11.144;2022-12-18T15:28:36;1.80;99.90
45643;DHT22;31358;46.008;11.144;2022-12-18T15:36:27;1.80;99.90
45643;DHT22;31358;46.008;11.144;2022-12-18T15:38:54;1.90;99.90
45643;DHT22;31358;46.008;11.144;2022-12-18T15:41:21;2.00;99.90
45643;DHT22;31358;46.008;11.144;2022-12-18T15:43:49;5.30;99.90
45643;DHT22;31358;46.008;11.144;2022-12-18T15:46:18;3.30;99.00
45643;DHT22;31358;46.008;11.144;2022-12-18T15:48:49;2.20;99.80
45643;DHT22;31358;46.008;11.144;2022-12-18T15:51:24;2.00;99.90
45643;DHT22;31358;46.008;11.144;2022-12-18T15:53:55;1.80;99.90
45643;DHT22;31358;46.008;11.144;2022-12-18T15:56:22;1.90;99.70
45643;DHT22;31358;46.008;11.144;2022-12-18T15:59:13;1.70;99.90
45643;DHT22;31358;46.008;11.144;2022-12-18T16:01:39;3.00;99.90
45643;DHT22;31358;46.008;11.144;2022-12-18T16:04:06;3.00;99.80
45643;DHT22;31358;46.008;11.144;2022-12-18T16:06:32;2.50;99.90
45643;DHT22;31358;46.008;11.144;2022-12-18T16:08:57;2.40;98.20
45643;DHT22;31358;46.008;11.144;2022-12-18T16:11:29;2.40;98.60
45643;DHT22;31358;46.008;11.144;2022-12-18T16:16:37;2.00;98.80
45643;DHT22;31358;46.008;11.144;2022-12-18T16:19:03;2.00;99.00
45643;DHT22;31358;46.008;11.144;2022-12-18T16:21:28;1.90;99.40
45643;DHT22;31358;46.008;11.144;2022-12-18T16:23:54;2.00;99.00
45643;DHT22;31358;46.008;11.144;2022-12-18T16:26:20;2.10;98.70
45643;DHT22;31358;46.008;11.144;2022-12-18T16:28:45;1.90;99.10
45643;DHT22;31358;46.008;11.144;2022-12-18T16:31:11;1.70;99.70
45643;DHT22;31358;46.008;11.144;2022-12-18T16:33:37;1.80;99.30
45643;DHT22;31358;46.008;11.144;2022-12-18T16:36:02;2.00;98.90
45643;DHT22;31358;46.008;11.144;2022-12-18T16:38:28;1.80;99.30
45643;DHT22;31358;46.008;11.144;2022-12-18T16:40:54;1.90;99.10
45643;DHT22;31358;46.008;11.144;2022-12-18T16:43:38;1.90;99.20
45643;DHT22;31358;46.008;11.144;2022-12-18T16:46:04;1.90;99.10
45643;DHT22;31358;46.008;11.144;2022-12-18T16:48:29;1.90;99.20
45643;DHT22;31358;46.008;11.144;2022-12-18T16:51:03;1.80;99.50
45643;DHT22;31358;46.008;11.144;2022-12-18T16:53:30;1.60;99.80
45643;DHT22;31358;46.008;11.144;2022-12-18T16:55:57;1.70;99.40
45643;DHT22;31358;46.008;11.144;2022-12-18T16:58:22;1.70;99.40
45643;DHT22;31358;46.008;11.144;2022-12-18T17:00:48;1.60;99.90
45643;DHT22;31358;46.008;11.144;2022-12-18T17:03:14;1.50;99.90
45643;DHT22;31358;46.008;11.144;2022-12-18T17:05:39;1.40;99.90
45643;DHT22;31358;46.008;11.144;2022-12-18T17:08:05;1.50;99.90
45643;DHT22;31358;46.008;11.144;2022-12-18T17:10:33;1.20;99.90
45643;DHT22;31358;46.008;11.144;2022-12-18T17:12:59;1.20;99.90
45643;DHT22;31358;46.008;11.144;2022-12-18T17:15:25;1.20;99.90
45643;DHT22;31358;46.008;11.144;2022-12-18T17:17:51;1.30;99.90
45643;DHT22;31358;46.008;11.144;2022-12-18T17:20:16;1.40;99.90
45643;DHT22;31358;46.008;11.144;2022-12-18T17:22:42;1.50;99.90
45643;DHT22;31358;46.008;11.144;2022-12-18T17:25:08;1.50;99.90
45643;DHT22;31358;46.008;11.144;2022-12-18T17:27:34;1.50;99.90
45643;DHT22;31358;46.008;11.144;2022-12-18T17:29:59;1.40;99.90
45643;DHT22;31358;46.008;11.144;2022-12-18T17:32:25;1.40;99.90
45643;DHT22;31358;46.008;11.144;2022-12-18T17:34:52;1.20;99.90
45643;DHT22;31358;46.008;11.144;2022-12-18T17:37:17;1.30;99.90
45643;DHT22;31358;46.008;11.144;2022-12-18T17:39:43;1.20;99.90
45643;DHT22;31358;46.008;11.144;2022-12-18T17:42:09;0.90;99.90
45643;DHT22;31358;46.008;11.144;2022-12-18T17:44:35;0.80;99.90
45643;DHT22;31358;46.008;11.144;2022-12-18T17:47:01;0.90;99.90
45643;DHT22;31358;46.008;11.144;2022-12-18T17:49:27;1.00;99.90
45643;DHT22;31358;46.008;11.144;2022-12-18T17:51:53;0.80;99.90
45643;DHT22;31358;46.008;11.144;2022-12-18T17:54:18;0.70;99.90
45643;DHT22;31358;46.008;11.144;2022-12-18T17:56:44;0.80;99.90